sensor_id;sensor_type;location;lat;lon;timestamp;pressure;altitude;pressure_sealevel;temperature;humidity
67013;BME280;53926;47.406;19.188;2023-03-01T00:01:04;101394.38;;;3.14;88.92
67013;BME280;53926;47.406;19.188;2023-03-01T00:03:32;101393.28;;;3.17;88.32
67013;BME280;53926;47.406;19.188;2023-03-01T00:05:59;101396.13;;;3.14;88.87
67013;BME280;53926;47.406;19.188;2023-03-01T00:08:26;101395.06;;;3.16;88.69
67013;BME280;53926;47.406;19.188;2023-03-01T00:11:01;101395.06;;;3.16;88.54
67013;BME280;53926;47.406;19.188;2023-03-01T00:13:28;101403.75;;;3.25;88.12
67013;BME280;53926;47.406;19.188;2023-03-01T00:15:55;101401.84;;;3.27;87.81
67013;BME280;53926;47.406;19.188;2023-03-01T00:18:21;101395.78;;;3.28;87.98
67013;BME280;53926;47.406;19.188;2023-03-01T00:20:51;101404.84;;;3.32;87.33
67013;BME280;53926;47.406;19.188;2023-03-01T00:23:18;101412.69;;;3.31;87.29
67013;BME280;53926;47.406;19.188;2023-03-01T00:25:45;101412.56;;;3.32;87.57
67013;BME280;53926;47.406;19.188;2023-03-01T00:28:11;101416.34;;;3.28;87.98
67013;BME280;53926;47.406;19.188;2023-03-01T00:30:38;101418.41;;;3.34;87.47
67013;BME280;53926;47.406;19.188;2023-03-01T00:33:04;101414.06;;;3.35;87.17
67013;BME280;53926;47.406;19.188;2023-03-01T00:35:35;101421.38;;;3.39;87.09
67013;BME280;53926;47.406;19.188;2023-03-01T00:38:02;101416.50;;;3.36;87.97
67013;BME280;53926;47.406;19.188;2023-03-01T00:40:32;101418.69;;;3.41;87.13
67013;BME280;53926;47.406;19.188;2023-03-01T00:43:00;101409.59;;;3.37;87.61
67013;BME280;53926;47.406;19.188;2023-03-01T00:45:27;101406.87;;;3.38;87.93
67013;BME280;53926;47.406;19.188;2023-03-01T00:47:54;101412.72;;;3.40;88.11
67013;BME280;53926;47.406;19.188;2023-03-01T00:50:20;101409.44;;;3.38;87.08
67013;BME280;53926;47.406;19.188;2023-03-01T00:52:50;101397.28;;;3.40;86.94
67013;BME280;53926;47.406;19.188;2023-03-01T00:55:18;101401.84;;;3.37;87.97
67013;BME280;53926;47.406;19.188;2023-03-01T00:57:44;101405.78;;;3.31;88.13
67013;BME280;53926;47.406;19.188;2023-03-01T01:00:11;101390.09;;;3.34;88.32
67013;BME280;53926;47.406;19.188;2023-03-01T01:02:38;101387.22;;;3.28;88.46
67013;BME280;53926;47.406;19.188;2023-03-01T01:05:05;101389.66;;;3.29;87.58
67013;BME280;53926;47.406;19.188;2023-03-01T01:07:32;101390.19;;;3.23;88.94
67013;BME280;53926;47.406;19.188;2023-03-01T01:09:59;101387.31;;;3.16;89.60
67013;BME280;53926;47.406;19.188;2023-03-01T01:12:25;101377.47;;;3.31;89.07
67013;BME280;53926;47.406;19.188;2023-03-01T01:14:52;101379.47;;;3.18;89.14
67013;BME280;53926;47.406;19.188;2023-03-01T01:17:19;101378.41;;;3.20;88.82
67013;BME280;53926;47.406;19.188;2023-03-01T01:19:45;101383.69;;;3.29;88.43
67013;BME280;53926;47.406;19.188;2023-03-01T01:22:12;101373.28;;;3.30;88.98
67013;BME280;53926;47.406;19.188;2023-03-01T01:24:38;101374.22;;;3.29;89.06
67013;BME280;53926;47.406;19.188;2023-03-01T01:27:05;101376.37;;;3.34;89.51
67013;BME280;53926;47.406;19.188;2023-03-01T01:29:33;101372.19;;;3.33;88.08
67013;BME280;53926;47.406;19.188;2023-03-01T01:32:00;101367.19;;;3.31;88.62
67013;BME280;53926;47.406;19.188;2023-03-01T01:34:26;101365.69;;;3.38;87.41
67013;BME280;53926;47.406;19.188;2023-03-01T01:36:54;101363.78;;;3.31;87.89
67013;BME280;53926;47.406;19.188;2023-03-01T01:39:21;101359.84;;;3.27;88.33
67013;BME280;53926;47.406;19.188;2023-03-01T01:41:48;101353.22;;;3.24;89.03
67013;BME280;53926;47.406;19.188;2023-03-01T01:44:24;101349.03;;;3.33;88.36
67013;BME280;53926;47.406;19.188;2023-03-01T01:49:29;101349.69;;;3.35;87.89
67013;BME280;53926;47.406;19.188;2023-03-01T01:54:34;101336.00;;;3.25;88.60
67013;BME280;53926;47.406;19.188;2023-03-01T01:57:07;101328.84;;;3.28;88.89
67013;BME280;53926;47.406;19.188;2023-03-01T01:59:36;101336.97;;;3.24;87.33
67013;BME280;53926;47.406;19.188;2023-03-01T02:02:05;101332.75;;;3.22;87.92
67013;BME280;53926;47.406;19.188;2023-03-01T02:04:32;101331.69;;;3.25;89.10
67013;BME280;53926;47.406;19.188;2023-03-01T02:07:09;101331.91;;;3.12;89.61
67013;BME280;53926;47.406;19.188;2023-03-01T02:09:42;101329.47;;;3.11;90.66
67013;BME280;53926;47.406;19.188;2023-03-01T02:12:10;101332.97;;;3.00;91.23
67013;BME280;53926;47.406;19.188;2023-03-01T02:14:37;101327.69;;;3.01;91.78
67013;BME280;53926;47.406;19.188;2023-03-01T02:17:03;101323.50;;;3.00;92.22
67013;BME280;53926;47.406;19.188;2023-03-01T02:22:25;101318.59;;;2.87;93.71
67013;BME280;53926;47.406;19.188;2023-03-01T02:30:33;101307.75;;;2.84;93.69
67013;BME280;53926;47.406;19.188;2023-03-01T02:33:00;101310.47;;;2.82;94.25
67013;BME280;53926;47.406;19.188;2023-03-01T02:35:32;101299.75;;;2.77;94.84
67013;BME280;53926;47.406;19.188;2023-03-01T02:38:01;101298.00;;;2.78;95.32
67013;BME280;53926;47.406;19.188;2023-03-01T02:40:30;101297.06;;;2.79;94.85
67013;BME280;53926;47.406;19.188;2023-03-01T02:42:59;101297.06;;;2.79;96.22
67013;BME280;53926;47.406;19.188;2023-03-01T02:45:26;101293.38;;;2.81;94.99
67013;BME280;53926;47.406;19.188;2023-03-01T02:47:54;101297.19;;;2.87;95.61
67013;BME280;53926;47.406;19.188;2023-03-01T02:53:16;101299.25;;;2.93;95.23
67013;BME280;53926;47.406;19.188;2023-03-01T02:55:49;101308.06;;;3.00;94.91
67013;BME280;53926;47.406;19.188;2023-03-01T02:58:16;101296.94;;;3.00;94.14
67013;BME280;53926;47.406;19.188;2023-03-01T03:00:42;101298.97;;;2.96;94.74
67013;BME280;53926;47.406;19.188;2023-03-01T03:03:15;101299.25;;;2.93;96.51
67013;BME280;53926;47.406;19.188;2023-03-01T03:05:42;101305.06;;;2.95;96.36
67013;BME280;53926;47.406;19.188;2023-03-01T03:08:09;101301.97;;;3.01;95.26
67013;BME280;53926;47.406;19.188;2023-03-01T03:10:41;101307.94;;;3.02;94.31
67013;BME280;53926;47.406;19.188;2023-03-01T03:13:14;101299.38;;;3.01;94.15
67013;BME280;53926;47.406;19.188;2023-03-01T03:15:42;101309.13;;;2.98;94.52
67013;BME280;53926;47.406;19.188;2023-03-01T03:18:12;101308.06;;;3.10;94.87
67013;BME280;53926;47.406;19.188;2023-03-01T03:20:40;101303.88;;;3.09;93.70
67013;BME280;53926;47.406;19.188;2023-03-01T03:23:07;101297.25;;;3.07;94.06
67013;BME280;53926;47.406;19.188;2023-03-01T03:25:34;101297.66;;;3.02;94.13
67013;BME280;53926;47.406;19.188;2023-03-01T03:28:05;101303.59;;;3.02;94.21
67013;BME280;53926;47.406;19.188;2023-03-01T03:30:38;101291.84;;;3.10;93.43
67013;BME280;53926;47.406;19.188;2023-03-01T03:33:06;101300.50;;;2.99;94.76
67013;BME280;53926;47.406;19.188;2023-03-01T03:35:59;101293.31;;;3.02;93.08
67013;BME280;53926;47.406;19.188;2023-03-01T03:38:26;101294.94;;;3.03;92.88
67013;BME280;53926;47.406;19.188;2023-03-01T03:41:01;101284.34;;;2.97;93.78
67013;BME280;53926;47.406;19.188;2023-03-01T03:43:31;101291.94;;;2.98;93.94
67013;BME280;53926;47.406;19.188;2023-03-01T03:45:58;101281.09;;;3.04;94.09
67013;BME280;53926;47.406;19.188;2023-03-01T03:48:25;101293.03;;;3.06;93.86
67013;BME280;53926;47.406;19.188;2023-03-01T03:50:54;101294.09;;;3.03;93.62
67013;BME280;53926;47.406;19.188;2023-03-01T03:53:22;101288.03;;;3.04;93.44
67013;BME280;53926;47.406;19.188;2023-03-01T03:55:49;101284.66;;;3.03;93.80
67013;BME280;53926;47.406;19.188;2023-03-01T03:58:19;101290.06;;;3.10;93.50
67013;BME280;53926;47.406;19.188;2023-03-01T04:00:48;101286.78;;;2.98;93.50
67013;BME280;53926;47.406;19.188;2023-03-01T04:03:16;101282.34;;;3.00;93.95
67013;BME280;53926;47.406;19.188;2023-03-01T04:05:43;101288.44;;;2.99;93.21
67013;BME280;53926;47.406;19.188;2023-03-01T04:08:10;101287.06;;;2.95;93.66
67013;BME280;53926;47.406;19.188;2023-03-01T04:10:40;101281.37;;;2.92;94.17
67013;BME280;53926;47.406;19.188;2023-03-01T04:13:09;101279.91;;;2.99;94.31
67013;BME280;53926;47.406;19.188;2023-03-01T04:15:37;101273.13;;;2.98;93.68
67013;BME280;53926;47.406;19.188;2023-03-01T04:18:04;101276.09;;;3.03;94.42
67013;BME280;53926;47.406;19.188;2023-03-01T04:20:33;101279.91;;;3.09;92.87
67013;BME280;53926;47.406;19.188;2023-03-01T04:23:09;101276.41;;;3.10;92.98
67013;BME280;53926;47.406;19.188;2023-03-01T04:25:42;101277.19;;;3.10;93.42
67013;BME280;53926;47.406;19.188;2023-03-01T04:28:11;101286.91;;;2.97;94.18
67013;BME280;53926;47.406;19.188;2023-03-01T04:30:38;101285.19;;;2.97;93.93
67013;BME280;53926;47.406;19.188;2023-03-01T04:33:07;101285.31;;;2.96;93.55
67013;BME280;53926;47.406;19.188;2023-03-01T04:35:36;101283.28;;;2.99;93.95
67013;BME280;53926;47.406;19.188;2023-03-01T04:38:04;101287.31;;;2.92;95.05
67013;BME280;53926;47.406;19.188;2023-03-01T04:40:31;101291.41;;;2.95;94.32
67013;BME280;53926;47.406;19.188;2023-03-01T04:42:58;101286.38;;;2.93;94.44
67013;BME280;53926;47.406;19.188;2023-03-01T04:45:25;101293.56;;;2.99;94.93
67013;BME280;53926;47.406;19.188;2023-03-01T04:47:52;101288.44;;;2.99;94.67
67013;BME280;53926;47.406;19.188;2023-03-01T04:50:19;101283.00;;;3.02;94.44
67013;BME280;53926;47.406;19.188;2023-03-01T04:52:50;101281.25;;;3.03;95.34
67013;BME280;53926;47.406;19.188;2023-03-01T04:55:17;101279.47;;;2.94;95.23
67013;BME280;53926;47.406;19.188;2023-03-01T04:57:44;101276.91;;;2.94;95.81
67013;BME280;53926;47.406;19.188;2023-03-01T05:00:12;101271.75;;;2.94;95.37
67013;BME280;53926;47.406;19.188;2023-03-01T05:02:53;101275.03;;;2.96;95.42
67013;BME280;53926;47.406;19.188;2023-03-01T05:05:29;101271.34;;;2.89;96.26
67013;BME280;53926;47.406;19.188;2023-03-01T05:08:01;101271.22;;;3.00;95.45
67013;BME280;53926;47.406;19.188;2023-03-01T05:10:30;101268.38;;;2.93;94.56
67013;BME280;53926;47.406;19.188;2023-03-01T05:12:58;101273.25;;;2.96;94.69
67013;BME280;53926;47.406;19.188;2023-03-01T05:15:26;101280.03;;;2.97;94.90
67013;BME280;53926;47.406;19.188;2023-03-01T05:17:56;101274.88;;;2.97;95.00
67013;BME280;53926;47.406;19.188;2023-03-01T05:20:26;101273.00;;;2.99;95.42
67013;BME280;53926;47.406;19.188;2023-03-01T05:22:56;101267.56;;;3.02;94.11
67013;BME280;53926;47.406;19.188;2023-03-01T05:25:23;101280.16;;;3.06;93.69
67013;BME280;53926;47.406;19.188;2023-03-01T05:27:51;101273.38;;;2.95;94.43
67013;BME280;53926;47.406;19.188;2023-03-01T05:30:21;101270.81;;;3.04;94.20
67013;BME280;53926;47.406;19.188;2023-03-01T05:32:50;101275.28;;;3.12;94.16
67013;BME280;53926;47.406;19.188;2023-03-01T05:35:22;101275.97;;;3.04;95.02
67013;BME280;53926;47.406;19.188;2023-03-01T05:37:49;101277.34;;;2.99;93.85
67013;BME280;53926;47.406;19.188;2023-03-01T05:40:21;101275.69;;;3.08;93.37
67013;BME280;53926;47.406;19.188;2023-03-01T05:42:52;101267.56;;;3.12;93.87
67013;BME280;53926;47.406;19.188;2023-03-01T05:45:19;101282.47;;;3.09;94.47
67013;BME280;53926;47.406;19.188;2023-03-01T05:47:47;101276.94;;;3.13;93.68
67013;BME280;53926;47.406;19.188;2023-03-01T05:50:15;101278.28;;;3.17;93.50
67013;BME280;53926;47.406;19.188;2023-03-01T05:52:50;101281.28;;;3.13;93.79
67013;BME280;53926;47.406;19.188;2023-03-01T05:55:19;101281.00;;;3.16;92.79
67013;BME280;53926;47.406;19.188;2023-03-01T05:57:47;101292.22;;;3.15;93.65
67013;BME280;53926;47.406;19.188;2023-03-01T06:00:15;101296.41;;;3.06;93.23
67013;BME280;53926;47.406;19.188;2023-03-01T06:02:44;101297.38;;;3.15;92.87
67013;BME280;53926;47.406;19.188;2023-03-01T06:05:12;101299.69;;;3.28;91.61
67013;BME280;53926;47.406;19.188;2023-03-01T06:07:40;101301.59;;;3.26;92.35
67013;BME280;53926;47.406;19.188;2023-03-01T06:10:08;101302.41;;;3.36;93.08
67013;BME280;53926;47.406;19.188;2023-03-01T06:12:37;101307.97;;;3.31;90.78
67013;BME280;53926;47.406;19.188;2023-03-01T06:15:06;101306.06;;;3.33;91.20
67013;BME280;53926;47.406;19.188;2023-03-01T06:17:37;101300.50;;;3.38;90.34
67013;BME280;53926;47.406;19.188;2023-03-01T06:20:07;101297.09;;;3.57;89.38
67013;BME280;53926;47.406;19.188;2023-03-01T06:22:34;101293.34;;;3.51;90.77
67013;BME280;53926;47.406;19.188;2023-03-01T06:25:01;101287.38;;;3.61;89.78
67013;BME280;53926;47.406;19.188;2023-03-01T06:27:28;101289.25;;;3.58;89.63
67013;BME280;53926;47.406;19.188;2023-03-01T06:29:55;101291.97;;;3.67;88.62
67013;BME280;53926;47.406;19.188;2023-03-01T06:32:21;101288.84;;;3.63;87.97
67013;BME280;53926;47.406;19.188;2023-03-01T06:34:49;101296.16;;;3.68;88.07
67013;BME280;53926;47.406;19.188;2023-03-01T06:37:16;101297.91;;;3.77;88.11
67013;BME280;53926;47.406;19.188;2023-03-01T06:39:42;101307.66;;;3.83;87.79
67013;BME280;53926;47.406;19.188;2023-03-01T06:42:09;101310.38;;;3.82;87.54
67013;BME280;53926;47.406;19.188;2023-03-01T06:44:38;101312.81;;;3.93;87.12
67013;BME280;53926;47.406;19.188;2023-03-01T06:47:05;101309.25;;;3.94;86.62
67013;BME280;53926;47.406;19.188;2023-03-01T06:49:31;101310.94;;;3.85;86.70
67013;BME280;53926;47.406;19.188;2023-03-01T06:51:58;101312.13;;;4.01;87.88
67013;BME280;53926;47.406;19.188;2023-03-01T06:54:25;101308.56;;;4.02;88.12
67013;BME280;53926;47.406;19.188;2023-03-01T06:56:51;101309.41;;;3.92;88.16
67013;BME280;53926;47.406;19.188;2023-03-01T06:59:18;101321.22;;;3.95;87.89
67013;BME280;53926;47.406;19.188;2023-03-01T07:01:45;101316.91;;;4.23;86.45
67013;BME280;53926;47.406;19.188;2023-03-01T07:04:12;101313.81;;;4.20;86.41
67013;BME280;53926;47.406;19.188;2023-03-01T07:06:39;101318.47;;;4.16;86.40
67013;BME280;53926;47.406;19.188;2023-03-01T07:09:06;101314.22;;;4.25;85.66
67013;BME280;53926;47.406;19.188;2023-03-01T07:11:33;101306.47;;;4.35;84.53
67013;BME280;53926;47.406;19.188;2023-03-01T07:13:59;101310.91;;;4.42;83.36
67013;BME280;53926;47.406;19.188;2023-03-01T07:16:26;101307.97;;;4.27;84.75
67013;BME280;53926;47.406;19.188;2023-03-01T07:18:53;101304.06;;;4.51;82.89
67013;BME280;53926;47.406;19.188;2023-03-01T07:21:20;101305.22;;;4.66;82.97
67013;BME280;53926;47.406;19.188;2023-03-01T07:23:47;101304.13;;;4.69;82.10
67013;BME280;53926;47.406;19.188;2023-03-01T07:26:14;101302.41;;;4.60;81.67
67013;BME280;53926;47.406;19.188;2023-03-01T07:28:41;101303.41;;;4.77;81.40
67013;BME280;53926;47.406;19.188;2023-03-01T07:31:07;101301.75;;;5.04;79.74
67013;BME280;53926;47.406;19.188;2023-03-01T07:33:34;101302.50;;;5.14;77.28
67013;BME280;53926;47.406;19.188;2023-03-01T07:36:03;101305.09;;;5.32;77.73
67013;BME280;53926;47.406;19.188;2023-03-01T07:38:30;101302.28;;;5.43;75.34
67013;BME280;53926;47.406;19.188;2023-03-01T07:41:01;101308.84;;;5.19;75.52
67013;BME280;53926;47.406;19.188;2023-03-01T07:43:29;101311.81;;;5.43;75.04
67013;BME280;53926;47.406;19.188;2023-03-01T07:46:03;101307.63;;;5.68;75.88
67013;BME280;53926;47.406;19.188;2023-03-01T07:48:31;101310.50;;;5.83;74.54
67013;BME280;53926;47.406;19.188;2023-03-01T07:50:59;101301.97;;;6.43;73.30
67013;BME280;53926;47.406;19.188;2023-03-01T07:53:26;101291.47;;;6.44;70.07
67013;BME280;53926;47.406;19.188;2023-03-01T07:56:12;101300.44;;;6.67;69.58
67013;BME280;53926;47.406;19.188;2023-03-01T07:58:41;101297.16;;;7.15;67.45
67013;BME280;53926;47.406;19.188;2023-03-01T08:01:11;101303.47;;;7.13;67.47
67013;BME280;53926;47.406;19.188;2023-03-01T08:03:38;101295.56;;;6.55;68.45
67013;BME280;53926;47.406;19.188;2023-03-01T08:06:07;101297.28;;;6.89;66.76
67013;BME280;53926;47.406;19.188;2023-03-01T08:08:34;101299.28;;;7.12;68.73
67013;BME280;53926;47.406;19.188;2023-03-01T08:11:03;101297.81;;;7.18;65.96
67013;BME280;53926;47.406;19.188;2023-03-01T08:13:31;101297.00;;;7.17;65.46
67013;BME280;53926;47.406;19.188;2023-03-01T08:16:07;101294.87;;;7.21;65.72
67013;BME280;53926;47.406;19.188;2023-03-01T08:18:34;101288.75;;;7.22;64.26
67013;BME280;53926;47.406;19.188;2023-03-01T08:21:05;101278.88;;;7.50;63.64
67013;BME280;53926;47.406;19.188;2023-03-01T08:23:32;101280.91;;;8.04;61.85
67013;BME280;53926;47.406;19.188;2023-03-01T08:26:13;101276.59;;;7.72;62.80
67013;BME280;53926;47.406;19.188;2023-03-01T08:28:41;101274.13;;;7.86;60.90
67013;BME280;53926;47.406;19.188;2023-03-01T08:31:22;101269.34;;;8.23;60.37
67013;BME280;53926;47.406;19.188;2023-03-01T08:33:51;101277.53;;;7.87;61.55
67013;BME280;53926;47.406;19.188;2023-03-01T08:36:28;101284.19;;;7.73;63.68
67013;BME280;53926;47.406;19.188;2023-03-01T08:38:55;101271.63;;;8.18;59.96
67013;BME280;53926;47.406;19.188;2023-03-01T08:41:23;101267.16;;;8.43;60.91
67013;BME280;53926;47.406;19.188;2023-03-01T08:43:49;101271.13;;;8.62;57.21
67013;BME280;53926;47.406;19.188;2023-03-01T08:46:16;101270.34;;;8.62;56.55
67013;BME280;53926;47.406;19.188;2023-03-01T08:48:43;101269.00;;;7.54;60.46
67013;BME280;53926;47.406;19.188;2023-03-01T08:51:14;101267.53;;;7.59;59.90
67013;BME280;53926;47.406;19.188;2023-03-01T08:53:44;101258.53;;;8.03;58.49
67013;BME280;53926;47.406;19.188;2023-03-01T08:56:11;101256.56;;;8.13;58.84
67013;BME280;53926;47.406;19.188;2023-03-01T08:58:38;101252.97;;;8.14;57.56
67013;BME280;53926;47.406;19.188;2023-03-01T09:01:07;101248.31;;;9.04;55.67
67013;BME280;53926;47.406;19.188;2023-03-01T09:03:35;101252.66;;;8.17;58.35
67013;BME280;53926;47.406;19.188;2023-03-01T09:06:03;101235.56;;;8.31;58.14
67013;BME280;53926;47.406;19.188;2023-03-01T09:08:31;101240.94;;;9.16;56.68
67013;BME280;53926;47.406;19.188;2023-03-01T09:11:02;101247.16;;;9.06;55.62
67013;BME280;53926;47.406;19.188;2023-03-01T09:13:29;101253.38;;;8.43;56.75
67013;BME280;53926;47.406;19.188;2023-03-01T09:15:59;101237.00;;;8.73;56.71
67013;BME280;53926;47.406;19.188;2023-03-01T09:18:27;101234.44;;;9.35;54.53
67013;BME280;53926;47.406;19.188;2023-03-01T09:21:01;101242.22;;;9.88;52.55
67013;BME280;53926;47.406;19.188;2023-03-01T09:23:28;101227.69;;;9.25;54.35
67013;BME280;53926;47.406;19.188;2023-03-01T09:25:55;101237.09;;;9.26;53.32
67013;BME280;53926;47.406;19.188;2023-03-01T09:28:21;101226.13;;;9.54;52.67
67013;BME280;53926;47.406;19.188;2023-03-01T09:30:59;101219.56;;;10.48;52.05
67013;BME280;53926;47.406;19.188;2023-03-01T09:33:27;101219.69;;;10.61;49.69
67013;BME280;53926;47.406;19.188;2023-03-01T09:35:58;101217.31;;;10.45;53.40
67013;BME280;53926;47.406;19.188;2023-03-01T09:38:25;101202.06;;;11.63;48.35
67013;BME280;53926;47.406;19.188;2023-03-01T09:40:53;101211.34;;;10.87;48.45
67013;BME280;53926;47.406;19.188;2023-03-01T09:46:13;101209.97;;;10.18;49.85
67013;BME280;53926;47.406;19.188;2023-03-01T09:48:50;101198.19;;;11.24;48.03
67013;BME280;53926;47.406;19.188;2023-03-01T09:51:23;101193.56;;;10.76;47.78
67013;BME280;53926;47.406;19.188;2023-03-01T09:53:52;101187.72;;;10.01;50.49
67013;BME280;53926;47.406;19.188;2023-03-01T09:56:27;101193.88;;;10.30;51.07
67013;BME280;53926;47.406;19.188;2023-03-01T10:04:49;101195.87;;;10.28;51.93
67013;BME280;53926;47.406;19.188;2023-03-01T10:10:27;101188.75;;;10.73;50.03
67013;BME280;53926;47.406;19.188;2023-03-01T10:12:56;101177.72;;;10.71;48.94
67013;BME280;53926;47.406;19.188;2023-03-01T10:15:35;101179.75;;;11.60;46.46
67013;BME280;53926;47.406;19.188;2023-03-01T10:18:11;101165.00;;;11.81;47.01
67013;BME280;53926;47.406;19.188;2023-03-01T10:21:02;101171.09;;;11.18;47.86
67013;BME280;53926;47.406;19.188;2023-03-01T10:23:32;101170.88;;;11.48;47.26
67013;BME280;53926;47.406;19.188;2023-03-01T10:26:36;101162.09;;;11.97;45.68
67013;BME280;53926;47.406;19.188;2023-03-01T10:29:10;101156.63;;;10.66;48.15
67013;BME280;53926;47.406;19.188;2023-03-01T10:31:49;101153.38;;;12.52;45.24
67013;BME280;53926;47.406;19.188;2023-03-01T10:34:20;101164.41;;;11.44;45.62
67013;BME280;53926;47.406;19.188;2023-03-01T10:36:51;101153.50;;;12.10;44.72
67013;BME280;53926;47.406;19.188;2023-03-01T10:39:24;101145.19;;;13.02;45.14
67013;BME280;53926;47.406;19.188;2023-03-01T10:41:57;101148.53;;;14.01;40.22
67013;BME280;53926;47.406;19.188;2023-03-01T10:44:37;101143.25;;;14.46;41.07
67013;BME280;53926;47.406;19.188;2023-03-01T10:47:04;101137.12;;;12.50;42.13
67013;BME280;53926;47.406;19.188;2023-03-01T10:49:31;101132.66;;;13.44;42.06
67013;BME280;53926;47.406;19.188;2023-03-01T10:52:15;101131.72;;;15.23;37.68
67013;BME280;53926;47.406;19.188;2023-03-01T10:54:52;101122.53;;;16.30;35.08
67013;BME280;53926;47.406;19.188;2023-03-01T10:57:31;101104.53;;;15.36;36.41
67013;BME280;53926;47.406;19.188;2023-03-01T11:00:20;101116.59;;;15.00;38.34
67013;BME280;53926;47.406;19.188;2023-03-01T11:05:25;101115.03;;;15.17;37.22
67013;BME280;53926;47.406;19.188;2023-03-01T11:07:56;101119.00;;;15.01;38.86
67013;BME280;53926;47.406;19.188;2023-03-01T11:10:24;101107.06;;;14.62;39.39
67013;BME280;53926;47.406;19.188;2023-03-01T11:12:52;101101.31;;;15.89;39.66
67013;BME280;53926;47.406;19.188;2023-03-01T11:15:25;101105.41;;;14.93;38.70
67013;BME280;53926;47.406;19.188;2023-03-01T11:17:53;101093.72;;;15.81;36.33
67013;BME280;53926;47.406;19.188;2023-03-01T11:20:35;101101.44;;;13.94;39.86
67013;BME280;53926;47.406;19.188;2023-03-01T11:23:06;101095.59;;;13.54;41.32
67013;BME280;53926;47.406;19.188;2023-03-01T11:25:41;101094.72;;;12.48;45.35
67013;BME280;53926;47.406;19.188;2023-03-01T11:28:14;101096.31;;;12.49;43.83
67013;BME280;53926;47.406;19.188;2023-03-01T11:30:55;101082.47;;;12.68;43.36
67013;BME280;53926;47.406;19.188;2023-03-01T11:33:53;101083.44;;;12.14;45.30
67013;BME280;53926;47.406;19.188;2023-03-01T11:38:51;101088.50;;;12.42;44.34
67013;BME280;53926;47.406;19.188;2023-03-01T11:41:34;101082.44;;;13.02;44.19
67013;BME280;53926;47.406;19.188;2023-03-01T11:44:11;101076.12;;;13.36;43.96
67013;BME280;53926;47.406;19.188;2023-03-01T12:01:20;101067.53;;;13.16;43.17
67013;BME280;53926;47.406;19.188;2023-03-01T12:14:18;101054.28;;;13.63;42.94
67013;BME280;53926;47.406;19.188;2023-03-01T12:46:44;100998.88;;;15.10;41.39
67013;BME280;53926;47.406;19.188;2023-03-01T12:49:04;101007.09;;;13.76;43.37
67013;BME280;53926;47.406;19.188;2023-03-01T12:51:35;101008.94;;;12.05;48.91
67013;BME280;53926;47.406;19.188;2023-03-01T12:54:11;101010.94;;;12.16;49.14
67013;BME280;53926;47.406;19.188;2023-03-01T12:56:41;100998.06;;;11.94;51.72
67013;BME280;53926;47.406;19.188;2023-03-01T12:59:18;100993.41;;;11.83;51.05
67013;BME280;53926;47.406;19.188;2023-03-01T13:01:57;101000.69;;;12.21;50.57
67013;BME280;53926;47.406;19.188;2023-03-01T13:10:16;100993.84;;;12.13;53.18
67013;BME280;53926;47.406;19.188;2023-03-01T13:17:50;100997.81;;;11.82;52.60
67013;BME280;53926;47.406;19.188;2023-03-01T13:20:19;100991.84;;;12.29;52.37
67013;BME280;53926;47.406;19.188;2023-03-01T13:22:48;100978.38;;;12.32;51.05
67013;BME280;53926;47.406;19.188;2023-03-01T13:25:27;100980.34;;;12.70;50.89
67013;BME280;53926;47.406;19.188;2023-03-01T13:31:08;100978.06;;;13.00;49.79
67013;BME280;53926;47.406;19.188;2023-03-01T13:44:18;100949.97;;;14.23;46.50
67013;BME280;53926;47.406;19.188;2023-03-01T13:46:47;100955.59;;;13.70;46.62
67013;BME280;53926;47.406;19.188;2023-03-01T13:49:20;100947.97;;;13.68;46.73
67013;BME280;53926;47.406;19.188;2023-03-01T13:51:49;100936.16;;;13.84;45.96
67013;BME280;53926;47.406;19.188;2023-03-01T13:54:22;100939.00;;;13.05;48.63
67013;BME280;53926;47.406;19.188;2023-03-01T13:56:51;100939.91;;;14.20;46.59
67013;BME280;53926;47.406;19.188;2023-03-01T13:59:21;100947.88;;;14.51;46.20
67013;BME280;53926;47.406;19.188;2023-03-01T14:01:57;100948.53;;;14.02;46.39
67013;BME280;53926;47.406;19.188;2023-03-01T14:04:32;100933.13;;;14.12;45.14
67013;BME280;53926;47.406;19.188;2023-03-01T14:07:28;100920.03;;;14.12;46.17
67013;BME280;53926;47.406;19.188;2023-03-01T14:09:59;100929.63;;;12.91;48.30
67013;BME280;53926;47.406;19.188;2023-03-01T14:12:57;100926.88;;;13.24;47.73
67013;BME280;53926;47.406;19.188;2023-03-01T14:16:02;100916.56;;;12.84;47.71
67013;BME280;53926;47.406;19.188;2023-03-01T14:18:43;100916.06;;;13.53;47.76
67013;BME280;53926;47.406;19.188;2023-03-01T14:21:15;100912.34;;;12.90;49.33
67013;BME280;53926;47.406;19.188;2023-03-01T14:23:42;100912.91;;;13.44;48.00
67013;BME280;53926;47.406;19.188;2023-03-01T14:26:09;100910.12;;;13.32;48.13
67013;BME280;53926;47.406;19.188;2023-03-01T14:28:39;100903.41;;;13.75;47.49
67013;BME280;53926;47.406;19.188;2023-03-01T14:31:36;100894.00;;;13.42;48.70
67013;BME280;53926;47.406;19.188;2023-03-01T14:34:23;100890.50;;;13.16;50.32
67013;BME280;53926;47.406;19.188;2023-03-01T14:36:50;100890.81;;;12.36;51.83
67013;BME280;53926;47.406;19.188;2023-03-01T14:39:19;100892.16;;;12.52;51.12
67013;BME280;53926;47.406;19.188;2023-03-01T14:41:46;100883.22;;;12.08;50.97
67013;BME280;53926;47.406;19.188;2023-03-01T14:44:21;100887.00;;;11.72;53.83
67013;BME280;53926;47.406;19.188;2023-03-01T14:46:53;100877.78;;;11.49;54.31
67013;BME280;53926;47.406;19.188;2023-03-01T14:49:24;100884.03;;;10.93;56.01
67013;BME280;53926;47.406;19.188;2023-03-01T14:51:59;100879.59;;;10.73;56.68
67013;BME280;53926;47.406;19.188;2023-03-01T14:57:04;100885.50;;;10.61;58.29
67013;BME280;53926;47.406;19.188;2023-03-01T14:59:33;100882.25;;;10.52;57.83